Canton, Massachusetts
Current Conditions -  °F | °C
As of 9:44 PM on Wednesday 22 Oct 2014 (Local Time) from KOWD Reporting Station
Thunderstorm Thunderstorm  
Wind Chill: 52°   Ceiling: 800
Heat Index: 52°   Visibility: 1.5mi
Dew Point: 50°   Wind: 23mph
Humidity: 93%   Direction: 20°NNE
Pressure: 29.8"   Gusts: 37mph
Location:  42.16°N, 71.14°W
Report Text: KOWD 230144Z 02020G32KT 1 1/2SM +TSRA BR BKN008 OVC014 11/10 A2980 RMK AO2 PK WND 04037/0106 TSB36 P0017 T01110100
Loading
Personal Weather Stations






























Interactive Weather Map
Tropical Storm Tracking
New forecast layout! Learn more

10-Day Weather Forecast

Advertisements
Track Severe Weather on mobile